Time;durP1;ratioP1;P1;durP2;ratioP2;P2;SDS_P1;SDS_P2;PMS_P1;PMS_P2;Temp;Humidity;BMP_temperature;BMP_pressure;BME280_temperature;BME280_humidity;BME280_pressure;Samples;Min_cycle;Max_cycle;Signal;HPM_P1;HPM_P2
2022/03/17 00:03:10;;;;;;;48.47;26.80;;;;;;;11.62;86.45;101036.03;8345029;28;20045;-64
2022/03/17 00:07:10;;;;;;;46.88;27.02;;;;;;;11.61;86.48;101039.66;8348185;28;20114;-64
2022/03/17 00:11:11;;;;;;;44.42;26.92;;;;;;;11.61;86.69;101045.09;8362842;28;20040;-64
2022/03/17 00:15:12;;;;;;;45.45;27.75;;;;;;;11.57;86.79;101043.66;8341341;28;20052;-64
2022/03/17 00:19:12;;;;;;;46.53;27.13;;;;;;;11.58;86.80;101046.22;8351944;28;20040;-64
2022/03/17 00:23:13;;;;;;;42.10;26.25;;;;;;;11.51;86.85;101045.06;8366565;28;20511;-64
2022/03/17 00:27:13;;;;;;;43.78;26.73;;;;;;;11.54;86.71;101050.19;8347400;28;20041;-64
2022/03/17 00:31:16;;;;;;;46.22;27.80;;;;;;;11.48;87.25;101055.28;8361587;28;20055;-64
2022/03/17 00:35:47;;;;;;;47.35;28.42;;;;;;;11.45;87.52;101061.84;8347229;28;20038;-64
2022/03/17 00:39:36;;;;;;;49.45;29.17;;;;;;;11.35;88.29;101055.47;8358250;28;20063;-64
2022/03/17 00:43:37;;;;;;;48.85;28.63;;;;;;;11.26;88.96;101050.00;8355406;28;20053;-64
2022/03/17 00:47:37;;;;;;;50.60;29.55;;;;;;;11.20;89.38;101051.38;8341156;28;20067;-64
2022/03/17 00:51:38;;;;;;;55.80;29.35;;;;;;;11.19;89.32;101048.84;8352825;28;20048;-64
2022/03/17 00:55:38;;;;;;;49.85;29.38;;;;;;;11.16;89.55;101052.63;8360149;28;20037;-64
2022/03/17 00:59:40;;;;;;;47.60;27.25;;;;;;;11.13;90.04;101065.59;8357935;28;20127;-64
2022/03/17 01:03:41;;;;;;;52.55;28.88;;;;;;;11.10;90.48;101063.16;8366232;28;20040;-64
2022/03/17 01:07:41;;;;;;;48.55;28.00;;;;;;;11.08;90.29;101062.41;8358644;28;20072;-64
2022/03/17 01:11:42;;;;;;;48.22;27.95;;;;;;;11.05;90.51;101054.56;8344956;28;20048;-64
2022/03/17 01:15:42;;;;;;;46.75;27.35;;;;;;;11.02;90.93;101052.09;8373866;28;20041;-64
2022/03/17 01:19:43;;;;;;;48.25;29.33;;;;;;;11.04;90.51;101056.38;8362675;28;20472;-64
2022/03/17 01:23:43;;;;;;;51.00;29.23;;;;;;;10.98;90.72;101054.19;8359308;28;20066;-64
2022/03/17 01:27:44;;;;;;;50.78;30.20;;;;;;;11.04;90.69;101044.72;8369144;28;20275;-64
2022/03/17 01:31:45;;;;;;;49.15;28.40;;;;;;;11.04;90.18;101048.28;8351007;28;20531;-64
2022/03/17 01:35:45;;;;;;;52.08;29.38;;;;;;;11.04;90.30;101037.44;8362679;28;20036;-64
2022/03/17 01:39:45;;;;;;;51.63;30.00;;;;;;;11.05;90.10;101041.03;8360295;28;20124;-64
2022/03/17 01:43:46;;;;;;;47.33;28.50;;;;;;;10.93;91.27;101048.34;8389899;28;20052;-64
2022/03/17 01:47:47;;;;;;;49.92;29.23;;;;;;;10.95;90.66;101035.53;8387421;28;20038;-64
2022/03/17 01:51:48;;;;;;;46.08;27.52;;;;;;;10.95;90.77;101035.53;8354090;28;20052;-64
2022/03/17 01:55:49;;;;;;;49.65;27.40;;;;;;;10.94;90.79;101033.81;8386635;28;20502;-64
2022/03/17 01:59:51;;;;;;;52.72;28.92;;;;;;;10.97;90.28;101038.97;8391751;28;20348;-64
2022/03/17 02:03:53;;;;;;;48.67;28.35;;;;;;;10.97;90.38;101038.97;8358611;28;20421;-64
2022/03/17 02:07:54;;;;;;;50.13;29.83;;;;;;;10.97;90.64;101030.84;8361471;28;20033;-64
2022/03/17 02:13:10;;;;;;;56.03;31.73;;;;;;;10.96;90.60;101039.09;8349691;28;20162;-64
2022/03/17 02:16:16;;;;;;;56.30;30.70;;;;;;;11.00;90.21;101038.72;8376484;28;20045;-64
2022/03/17 02:20:17;;;;;;;49.55;30.05;;;;;;;10.98;90.49;101037.97;8376367;28;20082;-64
2022/03/17 02:25:50;;;;;;;53.15;31.05;;;;;;;10.92;91.13;101034.94;8354974;28;20041;-64
2022/03/17 02:28:37;;;;;;;57.90;31.80;;;;;;;10.89;91.37;101035.22;8355948;28;20047;-64
2022/03/17 02:32:39;;;;;;;53.67;29.80;;;;;;;10.91;91.23;101033.22;8359690;28;20549;-64
2022/03/17 02:36:49;;;;;;;52.05;29.23;;;;;;;10.93;91.22;101037.53;8360965;28;20497;-64
2022/03/17 03:15:52;;;;;;;53.28;30.25;;;;;;;11.03;91.98;101054.69;8388368;28;20116;-64
2022/03/17 03:22:03;;;;;;;60.15;32.95;;;;;;;11.10;91.92;101060.44;8377491;28;20430;-64
2022/03/17 03:24:52;;;;;;;59.20;32.53;;;;;;;11.13;92.07;101063.72;8359791;28;20047;-64
2022/03/17 03:28:54;;;;;;;60.75;33.63;;;;;;;11.19;91.75;101068.63;8379462;28;20040;-64
2022/03/17 03:32:54;;;;;;;59.28;31.63;;;;;;;11.20;91.88;101077.59;8353970;28;20037;-64
2022/03/17 03:37:26;;;;;;;61.03;31.97;;;;;;;11.11;92.27;101084.66;8358697;28;20048;-64
2022/03/17 03:41:15;;;;;;;60.65;31.92;;;;;;;11.08;93.14;101093.03;8352735;28;20287;-64
2022/03/17 03:45:15;;;;;;;68.30;32.53;;;;;;;10.92;94.29;101103.41;8380023;28;20369;-64
2022/03/17 03:49:16;;;;;;;58.28;32.55;;;;;;;10.98;94.56;101113.72;8382996;28;20278;-64
2022/03/17 03:53:16;;;;;;;63.67;34.20;;;;;;;10.98;95.43;101121.84;8387290;28;20045;-64
2022/03/17 03:57:16;;;;;;;58.65;32.33;;;;;;;10.97;96.26;101125.53;8387132;28;20040;-64
2022/03/17 04:01:18;;;;;;;63.28;35.55;;;;;;;10.83;98.43;101131.22;8387532;28;20680;-64
2022/03/17 04:05:22;;;;;;;65.35;36.45;;;;;;;10.73;100.00;101137.56;8383583;28;20548;-64
2022/03/17 04:09:26;;;;;;;63.58;34.63;;;;;;;10.67;100.00;101148.88;8355542;28;20037;-64
2022/03/17 04:13:27;;;;;;;66.40;34.88;;;;;;;10.62;100.00;101162.78;8385006;28;20033;-64
2022/03/17 04:17:27;;;;;;;65.38;34.97;;;;;;;10.59;100.00;101172.97;8385740;28;22844;-64
2022/03/17 04:21:28;;;;;;;65.00;35.27;;;;;;;10.58;100.00;101177.50;8356922;28;20091;-64
2022/03/17 04:25:28;;;;;;;60.75;32.50;;;;;;;10.61;100.00;101169.13;8364539;28;20271;-64
2022/03/17 04:29:28;;;;;;;63.53;34.20;;;;;;;10.83;100.00;101176.38;8354179;28;20060;-64
2022/03/17 04:33:29;;;;;;;64.15;33.70;;;;;;;10.81;100.00;101184.63;8355113;28;20033;-63
2022/03/17 04:37:29;;;;;;;67.28;33.75;;;;;;;10.86;100.00;101186.94;8355211;28;20045;-63
2022/03/17 04:41:30;;;;;;;67.10;34.10;;;;;;;10.86;100.00;101198.59;8354692;28;20037;-63
2022/03/17 04:45:30;;;;;;;65.38;33.40;;;;;;;10.89;100.00;101198.34;8353731;28;20613;-63
2022/03/17 04:49:31;;;;;;;73.78;33.60;;;;;;;10.84;100.00;101214.13;8364813;28;20397;-63
2022/03/17 04:53:32;;;;;;;68.68;34.38;;;;;;;10.84;100.00;101222.22;8386364;28;20040;-64
2022/03/17 04:57:32;;;;;;;80.75;36.72;;;;;;;10.82;100.00;101218.78;8385731;28;20048;-64
2022/03/17 05:01:33;;;;;;;76.88;37.90;;;;;;;10.77;100.00;101229.09;8374793;28;20037;-64
2022/03/17 05:05:33;;;;;;;85.50;38.80;;;;;;;10.76;100.00;101231.94;8356658;28;20044;-64
2022/03/17 05:09:33;;;;;;;88.00;42.10;;;;;;;10.61;100.00;101250.25;8349181;28;20041;-65
2022/03/17 05:13:35;;;;;;;84.40;41.08;;;;;;;10.57;100.00;101261.44;8357903;28;20139;-65
2022/03/17 05:17:38;;;;;;;98.70;41.30;;;;;;;11.02;100.00;101269.44;8370117;28;20040;-65
2022/03/17 05:21:38;;;;;;;96.88;41.15;;;;;;;11.38;100.00;101277.22;8365984;28;20045;-65
2022/03/17 05:25:40;;;;;;;81.07;36.70;;;;;;;11.62;100.00;101280.63;8354388;28;20055;-65
2022/03/17 05:29:40;;;;;;;59.80;27.27;;;;;;;11.72;100.00;101299.69;8355087;28;20037;-65
2022/03/17 05:33:41;;;;;;;57.03;27.95;;;;;;;11.65;100.00;101312.84;8383089;28;20036;-65
2022/03/17 05:37:41;;;;;;;46.30;24.30;;;;;;;11.42;100.00;101327.44;8387178;28;20507;-65
2022/03/17 05:41:42;;;;;;;47.55;24.05;;;;;;;11.26;100.00;101329.66;8372121;28;20087;-64
2022/03/17 05:45:43;;;;;;;49.40;24.55;;;;;;;11.14;100.00;101349.63;8356914;28;20045;-64
2022/03/17 05:49:43;;;;;;;57.10;27.95;;;;;;;11.15;100.00;101359.44;8359980;28;20059;-64
2022/03/17 05:53:44;;;;;;;63.25;27.45;;;;;;;11.12;100.00;101378.66;8366252;28;20055;-64
2022/03/17 05:57:47;;;;;;;66.50;29.25;;;;;;;11.02;100.00;101377.66;8353780;28;20045;-64
2022/03/17 06:01:47;;;;;;;72.55;31.10;;;;;;;11.04;100.00;101397.31;8347226;28;20063;-64
2022/03/17 06:05:48;;;;;;;84.60;35.03;;;;;;;10.86;100.00;101404.19;8355977;28;20033;-64
2022/03/17 06:09:49;;;;;;;80.60;35.28;;;;;;;10.83;100.00;101409.84;8369130;28;20269;-64
2022/03/17 06:13:49;;;;;;;89.68;36.92;;;;;;;10.82;100.00;101416.25;8358586;28;20344;-64
2022/03/17 06:17:53;;;;;;;92.50;37.85;;;;;;;11.02;100.00;101426.38;8344030;28;20056;-65
2022/03/17 06:21:54;;;;;;;102.60;42.35;;;;;;;10.74;100.00;101428.66;8347184;28;20163;-65
2022/03/17 06:25:54;;;;;;;110.45;46.55;;;;;;;10.57;100.00;101439.91;8337022;28;20052;-65
2022/03/17 06:29:55;;;;;;;126.97;52.85;;;;;;;10.47;100.00;101464.09;8345364;28;20127;-65
2022/03/17 06:33:55;;;;;;;112.97;48.28;;;;;;;10.55;100.00;101483.28;8350005;28;20055;-65
2022/03/17 06:37:59;;;;;;;104.97;44.72;;;;;;;10.27;100.00;101491.75;8350614;28;20089;-65
2022/03/17 06:41:59;;;;;;;95.40;42.58;;;;;;;10.49;100.00;101507.25;8355234;28;20033;-65
2022/03/17 06:46:00;;;;;;;101.00;46.28;;;;;;;10.21;100.00;101516.53;8353342;28;20542;-65
2022/03/17 06:50:00;;;;;;;84.60;37.47;;;;;;;10.06;100.00;101525.72;8349577;28;20398;-65
2022/03/17 06:54:01;;;;;;;63.45;29.30;;;;;;;10.06;100.00;101547.34;8360811;28;20068;-65
2022/03/17 06:58:02;;;;;;;53.65;26.45;;;;;;;9.95;100.00;101558.09;8359492;28;20093;-65
2022/03/17 07:02:03;;;;;;;48.63;26.05;;;;;;;9.93;100.00;101563.59;8361218;28;20098;-65
2022/03/17 07:06:03;;;;;;;46.42;23.55;;;;;;;9.90;100.00;101573.75;8350232;28;20560;-65
2022/03/17 07:10:06;;;;;;;45.35;23.38;;;;;;;9.95;100.00;101577.00;8356717;28;20470;-65
2022/03/17 07:14:07;;;;;;;41.92;21.88;;;;;;;9.98;100.00;101583.03;8353979;28;20393;-65
2022/03/17 07:18:07;;;;;;;41.15;22.35;;;;;;;9.96;100.00;101589.53;8359028;28;20127;-65
2022/03/17 07:22:07;;;;;;;37.28;19.45;;;;;;;9.95;100.00;101609.41;8355734;28;20037;-64
2022/03/17 07:26:08;;;;;;;37.15;19.88;;;;;;;9.89;100.00;101620.66;8354458;28;20476;-64
2022/03/17 07:30:13;;;;;;;35.60;19.30;;;;;;;9.86;100.00;101632.53;8353290;28;20541;-65
2022/03/17 07:34:13;;;;;;;30.75;17.58;;;;;;;9.75;100.00;101645.06;8351287;28;20048;-64
2022/03/17 07:38:14;;;;;;;31.50;16.75;;;;;;;9.71;100.00;101643.56;8350090;28;20037;-64
2022/03/17 07:42:14;;;;;;;33.88;17.40;;;;;;;9.67;100.00;101637.50;8352326;28;20063;-64
2022/03/17 07:46:15;;;;;;;26.60;15.25;;;;;;;9.68;100.00;101657.28;8351901;28;20033;-64
2022/03/17 07:50:17;;;;;;;24.15;13.65;;;;;;;9.67;100.00;101674.47;8359699;28;20063;-64
2022/03/17 07:54:17;;;;;;;20.48;11.95;;;;;;;9.71;100.00;101675.97;8384340;28;20033;-64
2022/03/17 07:58:17;;;;;;;20.38;13.13;;;;;;;9.73;100.00;101696.47;8383060;28;20033;-64
2022/03/17 08:02:19;;;;;;;21.25;10.73;;;;;;;9.78;100.00;101694.34;8382593;28;20040;-64
2022/03/17 08:06:21;;;;;;;22.48;10.70;;;;;;;9.82;100.00;101711.19;8384840;28;20032;-64
2022/03/17 08:10:22;;;;;;;20.52;10.50;;;;;;;9.80;100.00;101723.94;8373445;28;20032;-64
2022/03/17 08:14:22;;;;;;;16.13;9.18;;;;;;;9.82;100.00;101721.97;8352693;28;20044;-64
2022/03/17 08:18:24;;;;;;;13.52;7.70;;;;;;;9.78;100.00;101715.06;8352765;28;20390;-64
2022/03/17 08:22:25;;;;;;;14.65;7.88;;;;;;;9.87;100.00;101719.84;8379038;28;20107;-64
2022/03/17 08:26:25;;;;;;;13.48;7.55;;;;;;;9.79;100.00;101738.44;8382648;28;20078;-64
2022/03/17 08:30:26;;;;;;;17.67;7.35;;;;;;;9.74;100.00;101741.44;8384582;28;20123;-64
2022/03/17 08:34:27;;;;;;;14.85;7.05;;;;;;;9.74;100.00;101745.97;8386571;28;20388;-64
2022/03/17 08:38:27;;;;;;;12.27;7.10;;;;;;;9.79;100.00;101754.63;8367129;28;20048;-64
2022/03/17 08:42:27;;;;;;;11.32;7.05;;;;;;;9.72;100.00;101764.09;8358812;28;20094;-64
2022/03/17 08:50:48;;;;;;;12.48;7.45;;;;;;;9.80;100.00;101783.34;8369867;28;20508;-64
2022/03/17 08:54:49;;;;;;;16.17;7.45;;;;;;;9.89;100.00;101791.69;8390545;28;20512;-64
2022/03/17 08:58:49;;;;;;;16.15;7.63;;;;;;;9.92;100.00;101804.13;8390622;28;20033;-64
2022/03/17 09:02:50;;;;;;;16.17;8.35;;;;;;;9.79;100.00;101806.78;8387862;28;20124;-64
2022/03/17 09:06:51;;;;;;;18.45;9.48;;;;;;;9.69;100.00;101803.00;8358517;28;20573;-64
2022/03/17 09:10:51;;;;;;;16.20;9.35;;;;;;;9.78;100.00;101809.59;8361741;28;20064;-64
2022/03/17 09:14:52;;;;;;;15.48;9.43;;;;;;;9.81;100.00;101817.50;8358154;28;20041;-64
2022/03/17 09:18:52;;;;;;;12.63;7.72;;;;;;;9.88;100.00;101829.59;8357851;28;20633;-64
2022/03/17 09:22:53;;;;;;;14.75;8.30;;;;;;;9.95;100.00;101831.78;8388743;28;20142;-64
2022/03/17 09:26:53;;;;;;;13.70;8.57;;;;;;;9.87;100.00;101844.09;8389302;28;20454;-64
2022/03/17 09:30:55;;;;;;;12.23;7.28;;;;;;;9.85;100.00;101840.63;8389411;28;20040;-64
2022/03/17 09:34:57;;;;;;;14.60;7.90;;;;;;;9.90;100.00;101846.59;8387572;28;20033;-64
2022/03/17 09:39:58;;;;;;;17.08;8.98;;;;;;;9.90;100.00;101865.50;8389121;28;20116;-63
2022/03/17 09:43:19;;;;;;;19.38;9.43;;;;;;;10.01;100.00;101868.34;8359955;28;20255;-63
2022/03/17 09:47:21;;;;;;;18.52;8.68;;;;;;;10.07;100.00;101872.50;8356341;28;20301;-63
2022/03/17 09:51:23;;;;;;;14.88;9.45;;;;;;;10.15;100.00;101873.69;8372833;28;20465;-63
2022/03/17 09:55:24;;;;;;;16.63;9.63;;;;;;;10.16;100.00;101883.56;8388602;28;20042;-64
2022/03/17 09:59:24;;;;;;;15.95;8.93;;;;;;;10.12;100.00;101891.97;8387286;28;20055;-64
2022/03/17 10:03:27;;;;;;;13.32;8.05;;;;;;;10.19;100.00;101898.69;8381236;28;20090;-64
2022/03/17 10:07:27;;;;;;;14.02;8.45;;;;;;;10.40;100.00;101906.16;8356440;28;20158;-64
2022/03/17 10:11:31;;;;;;;13.10;7.28;;;;;;;10.45;98.69;101905.84;8373813;28;20037;-64
2022/03/17 10:15:31;;;;;;;15.02;7.10;;;;;;;10.42;97.11;101909.66;8356178;28;20040;-64
2022/03/17 10:19:34;;;;;;;12.82;7.13;;;;;;;10.56;98.75;101930.31;8360792;28;20123;-64
2022/03/17 10:23:45;;;;;;;9.43;6.72;;;;;;;10.56;96.69;101928.50;8387659;28;20037;-64
2022/03/17 10:27:46;;;;;;;16.48;6.18;;;;;;;10.52;96.48;101935.06;8387739;28;20556;-64
2022/03/17 10:36:21;;;;;;;10.75;5.03;;;;;;;10.25;95.48;101947.78;8283830;27;20401;-62
2022/03/17 10:40:30;;;;;;;9.30;4.43;;;;;;;10.25;96.37;101958.59;8308695;28;20045;-62
2022/03/17 10:44:33;;;;;;;10.07;5.13;;;;;;;10.30;97.20;101964.53;8277219;28;20042;-62
2022/03/17 10:48:34;;;;;;;12.65;6.43;;;;;;;10.31;96.46;101968.13;8282089;28;20398;-62
2022/03/17 10:52:56;;;;;;;12.52;6.78;;;;;;;10.32;95.09;101976.13;8282150;28;20061;-63
2022/03/17 10:57:11;;;;;;;12.57;6.72;;;;;;;10.46;96.49;101984.16;8282052;28;20066;-63
2022/03/17 11:01:12;;;;;;;9.82;6.45;;;;;;;10.41;95.63;101985.44;8284828;28;20038;-63
2022/03/17 11:05:13;;;;;;;16.65;6.93;;;;;;;10.59;96.39;101992.31;8279950;28;20066;-63
2022/03/17 11:09:13;;;;;;;15.35;6.30;;;;;;;10.68;93.84;101988.97;8275094;28;20053;-63
2022/03/17 11:13:13;;;;;;;8.30;6.32;;;;;;;11.34;92.91;101997.78;8258146;28;20545;-63
2022/03/17 11:17:20;;;;;;;15.77;6.90;;;;;;;11.34;91.95;101995.06;8266052;28;20050;-63
2022/03/17 11:21:27;;;;;;;12.45;6.47;;;;;;;11.16;91.90;101999.94;8274814;28;20054;-63
2022/03/17 11:25:29;;;;;;;13.38;7.35;;;;;;;11.50;92.84;102012.81;8281101;28;20115;-63
2022/03/17 11:29:38;;;;;;;14.68;6.93;;;;;;;11.86;91.04;102009.31;8293537;28;20042;-63
2022/03/17 11:33:43;;;;;;;11.25;5.47;;;;;;;11.99;87.66;102015.59;8280617;28;20460;-63
2022/03/17 11:37:43;;;;;;;10.82;6.10;;;;;;;11.69;88.41;102018.66;8279822;28;20046;-63
2022/03/17 11:41:44;;;;;;;10.20;5.30;;;;;;;11.15;88.94;102022.59;8280160;28;20042;-63
2022/03/17 11:45:45;;;;;;;11.13;3.85;;;;;;;10.99;88.67;102030.06;8263583;28;20052;-63
2022/03/17 11:49:46;;;;;;;8.80;4.25;;;;;;;11.04;88.62;102038.69;8260949;28;20043;-63
2022/03/17 11:54:03;;;;;;;13.45;4.53;;;;;;;10.99;87.86;102032.75;8257878;28;20038;-63
2022/03/17 11:58:42;;;;;;;8.73;4.97;;;;;;;10.78;89.93;102027.94;8257590;28;20042;-63
2022/03/17 12:02:43;;;;;;;9.75;4.75;;;;;;;10.99;90.78;102035.47;8257829;28;20044;-63
2022/03/17 12:06:51;;;;;;;7.20;3.10;;;;;;;10.90;89.15;102043.34;8275252;28;20527;-63
2022/03/17 12:11:09;;;;;;;5.40;2.10;;;;;;;10.99;86.94;102046.31;8256692;28;20072;-63
2022/03/17 12:15:11;;;;;;;8.10;2.97;;;;;;;11.22;84.79;102044.66;8256787;28;20518;-63
2022/03/17 12:23:49;;;;;;;4.35;1.77;;;;;;;11.16;80.61;102056.81;8387675;27;20401;-63
2022/03/17 12:27:54;;;;;;;9.15;1.80;;;;;;;11.19;80.35;102061.16;8379372;28;20064;-63
2022/03/17 12:32:02;;;;;;;6.65;2.08;;;;;;;11.30;79.07;102051.31;8379335;28;20029;-63
2022/03/17 12:36:04;;;;;;;8.18;2.13;;;;;;;11.47;78.02;102060.94;8345407;28;20110;-63
2022/03/17 12:40:07;;;;;;;10.00;2.95;;;;;;;11.53;77.67;102055.09;8375022;28;20045;-63
2022/03/17 12:44:08;;;;;;;11.45;2.30;;;;;;;11.54;76.73;102064.94;8377910;28;20048;-63
2022/03/17 12:48:09;;;;;;;10.48;2.53;;;;;;;11.68;78.02;102067.56;8377965;28;20033;-63
2022/03/17 12:52:18;;;;;;;13.85;2.17;;;;;;;11.79;79.12;102075.78;8359261;28;20033;-63
2022/03/17 12:56:18;;;;;;;9.23;2.50;;;;;;;11.53;77.95;102072.19;8378344;28;20047;-63
2022/03/17 13:00:22;;;;;;;9.65;2.90;;;;;;;11.37;78.70;102071.56;8377956;28;20068;-63
2022/03/17 13:04:26;;;;;;;9.20;2.10;;;;;;;11.32;78.78;102073.69;8379564;28;20135;-63
2022/03/17 13:08:27;;;;;;;10.45;2.47;;;;;;;11.49;78.19;102077.94;8377439;28;20032;-63
2022/03/17 13:17:04;;;;;;;14.13;2.28;;;;;;;11.52;75.22;102075.88;8377315;28;20386;-63
2022/03/17 13:21:04;;;;;;;12.88;2.75;;;;;;;11.65;75.60;102071.34;8375044;28;20643;-63
2022/03/17 13:25:12;;;;;;;14.07;2.72;;;;;;;11.60;73.99;102084.34;8377337;28;20405;-63
2022/03/17 13:29:13;;;;;;;8.75;2.38;;;;;;;11.66;74.23;102083.94;8376656;28;20041;-63
2022/03/17 13:33:16;;;;;;;12.98;2.42;;;;;;;11.70;73.87;102085.44;8354174;28;20041;-63
2022/03/17 13:37:20;;;;;;;11.00;2.65;;;;;;;11.58;73.33;102085.41;8334812;28;20029;-63
2022/03/17 13:41:22;;;;;;;17.15;2.35;;;;;;;11.52;73.83;102102.97;8335078;28;20115;-63
2022/03/17 13:45:39;;;;;;;9.43;2.20;;;;;;;11.36;72.80;102107.75;8336531;28;20029;-63
2022/03/17 13:49:40;;;;;;;16.48;2.00;;;;;;;11.38;73.41;102110.34;8330357;28;20033;-63
2022/03/17 13:53:40;;;;;;;13.05;2.28;;;;;;;11.41;73.10;102112.84;8329913;28;20072;-63
2022/03/17 13:57:42;;;;;;;12.90;2.78;;;;;;;11.45;72.35;102117.06;8354447;28;20045;-63
2022/03/17 14:01:42;;;;;;;11.80;2.17;;;;;;;11.21;71.60;102119.63;8353121;28;20118;-63
2022/03/17 14:06:11;;;;;;;13.40;2.83;;;;;;;11.20;72.20;102112.47;8353988;28;20079;-63
2022/03/17 14:10:11;;;;;;;13.65;2.63;;;;;;;11.19;71.34;102121.56;8352058;28;20106;-63
2022/03/17 14:14:12;;;;;;;9.27;1.90;;;;;;;11.14;71.64;102118.31;8353871;28;20088;-63
2022/03/17 14:18:12;;;;;;;8.85;2.55;;;;;;;11.23;72.52;102131.19;8352793;28;20052;-63
2022/03/17 14:26:35;;;;;;;12.48;2.10;;;;;;;11.25;72.37;102159.03;8347423;28;20076;-63
2022/03/17 14:30:35;;;;;;;8.43;1.80;;;;;;;11.09;71.94;102158.38;8346500;28;20025;-63
2022/03/17 14:34:36;;;;;;;13.82;2.70;;;;;;;11.11;71.89;102167.25;8326824;28;20053;-63
2022/03/17 14:38:38;;;;;;;13.27;2.60;;;;;;;11.07;72.37;102165.72;8350694;28;20044;-63
2022/03/17 14:42:39;;;;;;;20.98;3.20;;;;;;;11.15;73.04;102179.59;8335955;28;20037;-63
2022/03/17 14:46:41;;;;;;;8.95;2.25;;;;;;;11.08;72.43;102178.28;8333324;28;20040;-63
2022/03/17 14:50:42;;;;;;;19.70;3.05;;;;;;;11.12;72.62;102184.34;8350347;28;20040;-63
2022/03/17 14:54:43;;;;;;;9.68;2.80;;;;;;;11.01;71.64;102182.34;8332774;28;20090;-63
2022/03/17 14:58:45;;;;;;;6.78;1.85;;;;;;;10.93;72.20;102190.16;8350250;28;20041;-63
2022/03/17 15:02:45;;;;;;;11.80;2.10;;;;;;;10.92;71.85;102196.50;8355715;28;20457;-63
2022/03/17 15:06:45;;;;;;;8.85;2.38;;;;;;;10.86;70.73;102199.63;8334995;28;20432;-63
2022/03/17 15:10:46;;;;;;;12.45;2.00;;;;;;;10.80;71.03;102207.28;8348741;28;20040;-63
2022/03/17 15:14:46;;;;;;;17.10;2.85;;;;;;;10.77;71.82;102208.34;8351070;28;20051;-63
2022/03/17 15:18:47;;;;;;;9.65;2.65;;;;;;;10.71;72.43;102222.28;8346402;28;20032;-63
2022/03/17 15:22:48;;;;;;;6.80;2.58;;;;;;;10.61;71.93;102214.88;8345996;28;20045;-63
2022/03/17 15:26:48;;;;;;;9.18;2.38;;;;;;;10.59;72.98;102220.38;8329908;28;20429;-63
2022/03/17 15:30:48;;;;;;;10.23;2.63;;;;;;;10.65;73.39;102233.50;8349616;28;20583;-63
2022/03/17 15:34:49;;;;;;;12.40;2.40;;;;;;;10.56;72.89;102231.41;8331890;28;20397;-63
2022/03/17 15:38:49;;;;;;;6.00;2.30;;;;;;;10.58;74.14;102225.88;8350043;28;20342;-63
2022/03/17 15:42:50;;;;;;;14.77;2.58;;;;;;;10.53;74.00;102238.81;8327570;28;20037;-63
2022/03/17 15:46:50;;;;;;;15.25;2.72;;;;;;;10.49;73.19;102240.84;8317355;28;20494;-63
2022/03/17 15:50:51;;;;;;;13.77;2.78;;;;;;;10.47;74.27;102250.03;8316364;28;20102;-63
2022/03/17 15:54:51;;;;;;;7.25;2.40;;;;;;;10.50;74.50;102253.41;8316681;28;20077;-64
2022/03/17 15:58:52;;;;;;;10.60;2.60;;;;;;;10.47;74.48;102256.31;8313050;28;20483;-63
2022/03/17 16:02:53;;;;;;;5.15;2.25;;;;;;;10.38;72.68;102262.31;8309804;28;20070;-63
2022/03/17 16:06:53;;;;;;;10.23;2.38;;;;;;;10.30;72.38;102270.03;8312038;28;20044;-63
2022/03/17 16:15:14;;;;;;;6.15;3.28;;;;;;;10.26;74.25;102273.88;8314238;28;20075;-63
2022/03/17 16:19:16;;;;;;;9.60;3.00;;;;;;;10.28;74.34;102281.91;8318509;28;20041;-63
2022/03/17 16:23:18;;;;;;;7.25;2.28;;;;;;;10.20;75.82;102278.78;8316254;28;20311;-63
2022/03/17 16:27:19;;;;;;;11.95;2.60;;;;;;;10.14;75.29;102290.88;8298780;28;20314;-63
2022/03/17 16:31:21;;;;;;;10.02;3.22;;;;;;;10.10;75.06;102289.31;8314887;28;20030;-63
2022/03/17 16:35:22;;;;;;;10.35;2.63;;;;;;;10.08;75.98;102291.25;8315166;28;20048;-63
2022/03/17 16:39:22;;;;;;;8.60;3.08;;;;;;;10.01;76.25;102300.66;8313633;28;20061;-63
2022/03/17 16:43:22;;;;;;;10.65;2.60;;;;;;;9.96;76.68;102308.16;8307321;28;20600;-63
2022/03/17 16:47:23;;;;;;;8.27;2.88;;;;;;;9.95;75.99;102318.09;8319920;28;20057;-63
2022/03/17 16:51:23;;;;;;;7.40;2.58;;;;;;;9.94;76.99;102318.19;8310427;28;20033;-63
2022/03/17 16:55:26;;;;;;;8.57;2.83;;;;;;;9.76;77.42;102316.63;8314063;28;20100;-63
2022/03/17 16:59:27;;;;;;;11.68;2.95;;;;;;;9.65;77.76;102335.28;8309539;28;20383;-63
2022/03/17 17:03:35;;;;;;;7.53;2.70;;;;;;;9.70;77.88;102333.19;8314973;28;20041;-63
2022/03/17 17:07:36;;;;;;;9.40;2.90;;;;;;;9.49;79.02;102339.84;8317769;28;20117;-63
2022/03/17 17:11:36;;;;;;;15.07;3.20;;;;;;;9.24;80.83;102344.91;8303617;28;20037;-63
2022/03/17 17:15:39;;;;;;;11.63;3.47;;;;;;;9.05;81.68;102350.47;8318113;28;20045;-63
2022/03/17 17:19:41;;;;;;;16.65;4.00;;;;;;;8.93;82.41;102345.75;8313385;28;20041;-63
2022/03/17 17:32:26;;;;;;;18.77;11.20;;;;;;;8.57;84.55;102368.50;8316497;28;20049;-63
2022/03/17 17:36:28;;;;;;;12.50;6.68;;;;;;;8.45;87.06;102383.47;8315932;28;20034;-63
2022/03/17 17:40:29;;;;;;;16.70;6.88;;;;;;;8.43;85.95;102381.81;8315079;28;21663;-63
2022/03/17 17:44:30;;;;;;;10.93;5.05;;;;;;;8.44;85.67;102383.56;8315937;28;20068;-63
2022/03/17 17:48:32;;;;;;;14.57;5.30;;;;;;;8.30;85.57;102396.91;8305043;28;20122;-63
2022/03/17 17:52:33;;;;;;;14.48;4.38;;;;;;;8.40;86.12;102403.56;8316111;28;20071;-63
2022/03/17 17:56:35;;;;;;;13.25;3.92;;;;;;;8.19;87.26;102404.63;8315276;28;20625;-63
2022/03/17 18:00:35;;;;;;;13.95;5.00;;;;;;;8.19;88.09;102415.41;8315536;28;20250;-63
2022/03/17 18:04:36;;;;;;;27.75;5.88;;;;;;;8.04;87.97;102417.97;8343561;28;20352;-63
2022/03/17 18:08:37;;;;;;;21.92;5.20;;;;;;;7.97;89.19;102424.59;8349159;28;20665;-63
2022/03/17 18:12:53;;;;;;;13.90;5.22;;;;;;;7.84;89.36;102426.16;8353440;28;20032;-63
2022/03/17 18:16:53;;;;;;;16.80;5.60;;;;;;;7.90;88.56;102436.63;8315285;28;20038;-63
2022/03/17 18:20:54;;;;;;;16.88;4.82;;;;;;;7.86;89.01;102443.13;8315548;28;20041;-63
2022/03/17 18:24:54;;;;;;;16.75;5.07;;;;;;;7.68;90.80;102445.84;8317067;28;20534;-63
2022/03/17 18:28:55;;;;;;;15.05;5.18;;;;;;;7.68;91.13;102452.09;8318197;28;20041;-63
2022/03/17 18:32:55;;;;;;;20.80;5.40;;;;;;;7.53;92.01;102446.56;8316380;28;20116;-63
2022/03/17 18:36:56;;;;;;;10.50;5.40;;;;;;;7.59;91.47;102457.94;8313132;28;20087;-63
2022/03/17 18:40:59;;;;;;;21.52;9.82;;;;;;;7.46;92.32;102462.16;8300615;28;20432;-63
2022/03/17 18:44:59;;;;;;;31.55;14.68;;;;;;;7.54;91.55;102465.34;8318566;28;20332;-63
2022/03/17 18:49:00;;;;;;;28.67;15.10;;;;;;;7.41;91.78;102464.19;8316814;28;20033;-63
2022/03/17 18:53:01;;;;;;;32.17;9.43;;;;;;;7.31;92.47;102476.34;8317092;28;20043;-63
2022/03/17 18:57:01;;;;;;;29.08;8.02;;;;;;;7.39;92.80;102481.38;8315098;28;20096;-64
2022/03/17 19:01:01;;;;;;;33.67;7.30;;;;;;;7.30;93.29;102482.69;8315893;28;20042;-64
2022/03/17 19:05:03;;;;;;;24.75;7.18;;;;;;;6.98;95.46;102501.25;8317506;28;20033;-63
2022/03/17 19:09:05;;;;;;;18.90;7.88;;;;;;;6.94;96.90;102503.19;8315856;28;20545;-63
2022/03/17 19:13:06;;;;;;;18.75;7.15;;;;;;;6.84;97.27;102507.25;8312724;28;20494;-64
2022/03/17 19:17:10;;;;;;;15.55;6.53;;;;;;;6.81;97.46;102518.13;8316141;28;20477;-64
2022/03/17 19:21:10;;;;;;;12.63;5.55;;;;;;;6.88;97.51;102529.47;8315029;28;21961;-63
2022/03/17 19:25:11;;;;;;;19.00;7.30;;;;;;;7.00;96.22;102535.19;8315299;28;20037;-63
2022/03/17 19:29:12;;;;;;;20.30;7.60;;;;;;;6.99;95.16;102530.75;8315762;28;20037;-63
2022/03/17 19:33:12;;;;;;;23.10;7.50;;;;;;;7.04;94.59;102543.97;8317014;28;20041;-63
2022/03/17 19:37:13;;;;;;;14.88;7.40;;;;;;;7.03;94.50;102547.63;8316209;28;20112;-63
2022/03/17 19:41:14;;;;;;;17.33;7.45;;;;;;;6.97;95.37;102564.91;8315185;28;20096;-63